Time;durP1;ratioP1;P1;durP2;ratioP2;P2;SDS_P1;SDS_P2;PMS_P1;PMS_P2;Temp;Humidity;BMP_temperature;BMP_pressure;BME280_temperature;BME280_humidity;BME280_pressure;Samples;Min_cycle;Max_cycle;Signal;HPM_P1;HPM_P2
2021/04/09 00:01:50;;;;;;;3.97;3.00;;;;;;;1.81;100.00;97762.88;4994461;28;20236;-87
2021/04/09 00:04:17;;;;;;;4.43;3.47;;;;;;;1.84;100.00;97760.16;4994522;28;20207;-87
2021/04/09 00:06:44;;;;;;;3.73;3.13;;;;;;;1.77;100.00;97763.94;4994332;28;20192;-87
2021/04/09 00:09:12;;;;;;;3.50;3.20;;;;;;;1.62;100.00;97763.66;4994381;28;20299;-87
2021/04/09 00:11:41;;;;;;;4.50;3.07;;;;;;;1.82;100.00;97767.16;4994396;28;20240;-87
2021/04/09 00:14:09;;;;;;;3.57;3.27;;;;;;;1.85;100.00;97765.25;5011866;28;20232;-86
2021/04/09 00:16:36;;;;;;;4.20;3.80;;;;;;;1.69;100.00;97760.81;5013755;28;20210;-87
2021/04/09 00:19:06;;;;;;;4.50;3.43;;;;;;;1.70;100.00;97770.25;5014020;28;20552;-87
2021/04/09 00:21:33;;;;;;;2.93;2.73;;;;;;;1.66;100.00;97764.38;5013707;28;20199;-87
2021/04/09 00:24:00;;;;;;;3.17;2.87;;;;;;;1.77;100.00;97767.38;5013749;28;20195;-87
2021/04/09 00:26:27;;;;;;;3.13;2.83;;;;;;;1.84;100.00;97768.78;5014068;28;20218;-87
2021/04/09 00:28:55;;;;;;;4.10;2.80;;;;;;;1.91;100.00;97761.56;5013791;28;20196;-86
2021/04/09 00:31:22;;;;;;;2.87;2.67;;;;;;;1.82;100.00;97765.41;5013878;28;20678;-87
2021/04/09 00:33:49;;;;;;;3.83;3.37;;;;;;;1.78;100.00;97763.84;5013719;28;20822;-87
2021/04/09 00:36:17;;;;;;;4.20;2.77;;;;;;;1.74;100.00;97764.06;5013521;28;20751;-87
2021/04/09 00:38:44;;;;;;;3.40;3.10;;;;;;;1.71;100.00;97762.44;5013263;28;20676;-87
2021/04/09 00:41:11;;;;;;;3.57;3.27;;;;;;;1.81;100.00;97758.53;5013270;28;20292;-86
2021/04/09 00:43:39;;;;;;;3.43;3.13;;;;;;;1.65;100.00;97762.69;5013239;28;20235;-87
2021/04/09 00:46:07;;;;;;;3.80;3.33;;;;;;;1.85;100.00;97756.66;5013171;28;20196;-86
2021/04/09 00:48:33;;;;;;;8.37;3.43;;;;;;;1.79;100.00;97760.34;5013078;28;20294;-86
2021/04/09 00:51:00;;;;;;;4.43;3.13;;;;;;;1.50;100.00;97772.00;5013224;28;20199;-85
2021/04/09 00:53:28;;;;;;;3.20;2.90;;;;;;;1.49;100.00;97777.22;5013064;28;20246;-86
2021/04/09 00:55:56;;;;;;;3.20;2.90;;;;;;;1.46;100.00;97777.38;5013458;28;20304;-86
2021/04/09 00:58:23;;;;;;;4.13;3.50;;;;;;;1.49;100.00;97775.50;5003164;28;20308;-86
2021/04/09 01:00:50;;;;;;;3.70;2.97;;;;;;;1.60;100.00;97769.84;4993609;28;20196;-86
2021/04/09 01:03:18;;;;;;;3.40;3.00;;;;;;;1.77;100.00;97774.31;5007462;28;20200;-86
2021/04/09 01:05:45;;;;;;;3.53;2.97;;;;;;;1.81;100.00;97771.50;5013299;28;20246;-86
2021/04/09 01:08:12;;;;;;;3.80;2.90;;;;;;;1.57;100.00;97776.00;5012053;28;20295;-86
2021/04/09 01:10:39;;;;;;;7.27;3.17;;;;;;;1.59;100.00;97776.78;5012970;28;20667;-86
2021/04/09 01:13:06;;;;;;;2.87;2.67;;;;;;;1.74;100.00;97782.22;5012624;28;20231;-85
2021/04/09 01:15:33;;;;;;;3.80;3.10;;;;;;;1.52;100.00;97783.13;5012579;28;20276;-85
2021/04/09 01:18:07;;;;;;;4.13;3.67;;;;;;;1.62;100.00;97778.38;5012748;28;20261;-86
2021/04/09 01:20:53;;;;;;;3.77;2.63;;;;;;;1.54;100.00;97776.13;5012742;28;20241;-85
2021/04/09 01:23:32;;;;;;;5.70;3.30;;;;;;;1.55;100.00;97779.56;5010378;28;20201;-86
2021/04/09 01:26:32;;;;;;;3.83;3.50;;;;;;;1.38;100.00;97778.53;4993123;28;20279;-86
2021/04/09 01:29:20;;;;;;;5.70;2.97;;;;;;;1.43;100.00;97780.94;4992926;28;20232;-86
2021/04/09 01:31:52;;;;;;;4.63;3.53;;;;;;;1.36;100.00;97780.34;4993062;28;20287;-86
2021/04/09 01:34:20;;;;;;;4.07;3.30;;;;;;;1.39;100.00;97781.97;4993308;28;20322;-86
2021/04/09 01:36:50;;;;;;;4.40;2.67;;;;;;;1.38;100.00;97781.09;4993229;28;20564;-86
2021/04/09 01:39:23;;;;;;;5.17;3.30;;;;;;;1.52;100.00;97777.94;4993045;28;20272;-86
2021/04/09 01:41:53;;;;;;;3.73;3.40;;;;;;;1.56;100.00;97769.16;4992910;28;20649;-86
2021/04/09 01:44:24;;;;;;;3.00;2.37;;;;;;;1.45;100.00;97779.09;4992863;28;20223;-86
2021/04/09 01:46:54;;;;;;;5.13;3.00;;;;;;;1.41;100.00;97790.50;4999483;28;20199;-86
2021/04/09 01:49:24;;;;;;;4.07;2.93;;;;;;;1.40;100.00;97802.63;5012775;28;20215;-86
2021/04/09 01:51:52;;;;;;;3.10;2.80;;;;;;;1.45;100.00;97801.59;5012533;28;20227;-85
2021/04/09 01:54:21;;;;;;;3.13;2.80;;;;;;;1.43;100.00;97806.84;5012689;28;20250;-86
2021/04/09 01:56:48;;;;;;;5.10;2.97;;;;;;;1.27;100.00;97826.50;5012306;28;20290;-86
2021/04/09 01:59:17;;;;;;;4.70;3.30;;;;;;;1.44;100.00;97816.28;5012606;28;20626;-86
2021/04/09 02:01:46;;;;;;;3.37;2.57;;;;;;;1.42;100.00;97824.13;5012112;28;20195;-85
2021/04/09 02:04:16;;;;;;;3.13;2.73;;;;;;;1.22;100.00;97828.47;5012297;28;20291;-86
2021/04/09 02:06:44;;;;;;;2.57;2.37;;;;;;;1.36;100.00;97820.97;5012054;28;20206;-85
2021/04/09 02:09:13;;;;;;;4.00;2.73;;;;;;;1.32;100.00;97824.59;5012210;28;20311;-86
2021/04/09 02:11:41;;;;;;;2.53;2.30;;;;;;;1.08;100.00;97829.84;5012042;28;20238;-86
2021/04/09 02:14:11;;;;;;;2.83;2.57;;;;;;;1.28;100.00;97842.00;5012018;28;20682;-86
2021/04/09 02:16:39;;;;;;;2.50;2.40;;;;;;;1.19;100.00;97840.63;5012197;28;20187;-86
2021/04/09 02:19:06;;;;;;;2.53;2.33;;;;;;;1.14;100.00;97846.88;5012195;28;20196;-85
2021/04/09 02:21:34;;;;;;;3.40;2.67;;;;;;;1.13;100.00;97850.38;5015790;28;20200;-85
2021/04/09 02:24:03;;;;;;;6.60;3.07;;;;;;;1.36;100.00;97854.63;5015632;28;20204;-85
2021/04/09 02:26:30;;;;;;;2.47;2.27;;;;;;;1.51;100.00;97848.81;5015908;28;20672;-85
2021/04/09 02:28:59;;;;;;;2.87;2.60;;;;;;;1.59;100.00;97836.41;5015358;28;20282;-85
2021/04/09 02:31:28;;;;;;;4.80;2.40;;;;;;;1.54;100.00;97838.31;5015730;28;20191;-85
2021/04/09 02:33:55;;;;;;;2.97;2.47;;;;;;;1.41;100.00;97832.78;5015725;28;20279;-85
2021/04/09 02:36:24;;;;;;;3.27;2.27;;;;;;;1.50;100.00;97825.56;5015665;28;20207;-85
2021/04/09 02:38:58;;;;;;;2.90;2.70;;;;;;;1.31;100.00;97843.59;5015746;28;20278;-85
2021/04/09 02:41:29;;;;;;;4.63;2.80;;;;;;;1.30;100.00;97834.16;5015532;28;20191;-85
2021/04/09 02:43:56;;;;;;;4.37;2.73;;;;;;;1.32;100.00;97840.13;5015206;28;20192;-85
2021/04/09 02:46:28;;;;;;;4.27;2.83;;;;;;;1.18;100.00;97838.09;5014897;28;20223;-86
2021/04/09 02:49:02;;;;;;;2.80;2.30;;;;;;;1.35;100.00;97847.75;5015031;28;20188;-85
2021/04/09 02:51:33;;;;;;;3.00;2.70;;;;;;;1.39;100.00;97844.16;5015441;28;20330;-85
2021/04/09 02:54:02;;;;;;;3.80;2.80;;;;;;;1.34;100.00;97846.06;5014956;28;20229;-85
2021/04/09 02:56:30;;;;;;;2.80;2.60;;;;;;;1.30;100.00;97847.13;5014999;28;20199;-85
2021/04/09 02:59:00;;;;;;;2.47;2.27;;;;;;;1.42;100.00;97851.78;5015166;28;20282;-84
2021/04/09 03:01:28;;;;;;;3.13;2.30;;;;;;;1.31;100.00;97852.22;5015068;28;20238;-85
2021/04/09 03:03:56;;;;;;;2.60;2.40;;;;;;;1.40;100.00;97858.78;5014723;28;20593;-85
2021/04/09 03:06:24;;;;;;;3.07;2.67;;;;;;;1.47;100.00;97856.78;5015010;28;20587;-85
2021/04/09 03:08:51;;;;;;;2.53;2.30;;;;;;;1.41;100.00;97863.03;5014701;28;20203;-85
2021/04/09 03:11:22;;;;;;;5.33;2.33;;;;;;;1.41;100.00;97860.47;5014682;28;20295;-85
2021/04/09 03:13:49;;;;;;;2.67;2.47;;;;;;;1.43;100.00;97849.13;5014195;28;20394;-84
2021/04/09 03:16:19;;;;;;;2.53;2.33;;;;;;;1.08;100.00;97857.50;4995016;28;20207;-85
2021/04/09 03:18:47;;;;;;;2.70;2.50;;;;;;;1.00;100.00;97865.56;4994887;28;20188;-85
2021/04/09 03:21:13;;;;;;;7.13;2.53;;;;;;;1.23;100.00;97869.00;4994884;28;20204;-83
2021/04/09 03:23:40;;;;;;;2.83;2.40;;;;;;;1.32;100.00;97863.44;4995782;28;20200;-84
2021/04/09 03:26:07;;;;;;;2.90;2.60;;;;;;;1.13;100.00;97863.31;5008588;28;20176;-83
2021/04/09 03:28:35;;;;;;;2.80;2.60;;;;;;;1.29;100.00;97872.19;4996917;28;20204;-85
2021/04/09 03:31:02;;;;;;;4.03;3.73;;;;;;;1.25;100.00;97867.16;4993512;28;20740;-85
2021/04/09 03:33:29;;;;;;;2.90;2.60;;;;;;;1.12;100.00;97866.84;4999190;28;20230;-84
2021/04/09 03:35:55;;;;;;;4.00;2.90;;;;;;;1.16;100.00;97870.97;5013530;28;20314;-84
2021/04/09 03:38:22;;;;;;;3.53;2.83;;;;;;;1.16;100.00;97882.19;5013455;28;20290;-85
2021/04/09 03:40:49;;;;;;;3.70;3.40;;;;;;;1.15;100.00;97882.25;5013739;28;20199;-85
2021/04/09 03:43:17;;;;;;;5.00;4.17;;;;;;;1.13;100.00;97897.00;5013714;28;20574;-85
2021/04/09 03:45:44;;;;;;;5.47;3.90;;;;;;;1.19;100.00;97905.38;5013656;28;20192;-85
2021/04/09 03:48:12;;;;;;;5.67;5.07;;;;;;;1.36;100.00;97898.69;5013155;28;20294;-84
2021/04/09 03:50:38;;;;;;;4.77;4.10;;;;;;;1.35;100.00;97900.44;5013281;28;20199;-84
2021/04/09 03:53:06;;;;;;;5.60;3.63;;;;;;;1.39;100.00;97911.50;5013186;28;20282;-84
2021/04/09 03:55:33;;;;;;;3.67;3.27;;;;;;;1.32;100.00;97910.06;5013569;28;20279;-85
2021/04/09 03:58:00;;;;;;;4.97;4.30;;;;;;;1.28;100.00;97904.19;5013270;28;20676;-85
2021/04/09 04:00:27;;;;;;;3.87;3.53;;;;;;;1.01;100.00;97913.03;5013660;28;20203;-85
2021/04/09 04:02:55;;;;;;;3.77;3.37;;;;;;;1.14;100.00;97921.97;5012717;28;20212;-85
2021/04/09 04:05:22;;;;;;;2.60;2.40;;;;;;;1.05;100.00;97918.00;5013177;28;20217;-85
2021/04/09 04:07:49;;;;;;;2.70;2.23;;;;;;;1.06;100.00;97909.34;5013650;28;20641;-85
2021/04/09 04:10:16;;;;;;;2.93;2.73;;;;;;;1.09;100.00;97914.41;5013636;28;20272;-85
2021/04/09 04:12:44;;;;;;;3.87;2.77;;;;;;;1.29;100.00;97915.38;5012845;28;20680;-84
2021/04/09 04:15:11;;;;;;;2.80;2.60;;;;;;;1.15;100.00;97908.97;5013127;28;20262;-85
2021/04/09 04:17:38;;;;;;;3.97;3.10;;;;;;;1.12;100.00;97914.28;5013109;28;20226;-85
2021/04/09 04:20:07;;;;;;;2.40;2.20;;;;;;;1.21;100.00;97915.66;5013191;28;20206;-85
2021/04/09 04:22:34;;;;;;;2.90;2.70;;;;;;;1.19;100.00;97917.47;5013041;28;20290;-84
2021/04/09 04:25:01;;;;;;;3.33;2.73;;;;;;;1.25;100.00;97916.38;5013249;28;20588;-85
2021/04/09 04:27:27;;;;;;;2.60;2.40;;;;;;;1.16;100.00;97913.25;5012487;28;20753;-84
2021/04/09 04:29:54;;;;;;;4.93;3.10;;;;;;;1.24;100.00;97914.69;5012826;28;20265;-86
2021/04/09 04:32:21;;;;;;;4.30;3.30;;;;;;;1.31;100.00;97916.97;5013245;28;20603;-85
2021/04/09 04:34:48;;;;;;;3.20;2.90;;;;;;;1.15;100.00;97903.81;5013075;28;20367;-85
2021/04/09 04:37:16;;;;;;;3.23;2.93;;;;;;;1.23;100.00;97905.25;5013221;28;20231;-85
2021/04/09 04:39:44;;;;;;;3.33;3.03;;;;;;;1.22;100.00;97906.16;5013187;28;20297;-86
2021/04/09 04:42:11;;;;;;;3.40;2.50;;;;;;;1.20;100.00;97906.19;5012891;28;20203;-85
2021/04/09 04:44:38;;;;;;;4.37;4.00;;;;;;;1.30;100.00;97907.53;5012201;28;20684;-84
2021/04/09 04:47:05;;;;;;;5.83;2.90;;;;;;;1.24;100.00;97912.09;5012892;28;20265;-86
2021/04/09 04:49:32;;;;;;;4.10;2.97;;;;;;;1.19;100.00;97917.47;5008330;28;20244;-85
2021/04/09 04:51:58;;;;;;;4.97;3.30;;;;;;;1.34;100.00;97922.03;5003517;28;20213;-85
2021/04/09 04:54:26;;;;;;;2.53;2.23;;;;;;;1.34;100.00;97926.38;5011717;28;20314;-85
2021/04/09 04:56:53;;;;;;;2.50;2.30;;;;;;;1.23;100.00;97926.81;5011704;28;20278;-86
2021/04/09 04:59:20;;;;;;;2.33;2.20;;;;;;;1.26;100.00;97937.06;5012665;28;20290;-86
2021/04/09 05:01:47;;;;;;;4.27;3.03;;;;;;;1.28;100.00;97936.97;5012822;28;20199;-85
2021/04/09 05:04:14;;;;;;;2.63;2.30;;;;;;;1.47;100.00;97945.72;5012744;28;20671;-85
2021/04/09 05:06:40;;;;;;;5.53;3.27;;;;;;;1.37;100.00;97936.63;5012280;28;20256;-86
2021/04/09 05:09:07;;;;;;;3.90;2.60;;;;;;;1.31;100.00;97942.88;5012522;28;20286;-85
2021/04/09 05:11:35;;;;;;;2.87;2.63;;;;;;;1.39;100.00;97942.59;5012924;28;20326;-85
2021/04/09 05:14:03;;;;;;;3.07;2.63;;;;;;;1.62;100.00;97944.25;5012482;28;20748;-86
2021/04/09 05:16:29;;;;;;;2.07;1.97;;;;;;;1.57;100.00;97951.38;5012784;28;20203;-85
2021/04/09 05:18:56;;;;;;;2.50;2.30;;;;;;;1.67;100.00;97942.34;5012330;28;20203;-85
2021/04/09 05:21:23;;;;;;;2.40;2.20;;;;;;;1.74;100.00;97942.91;5012916;28;20740;-86
2021/04/09 05:23:50;;;;;;;3.23;2.80;;;;;;;1.85;100.00;97946.75;5012412;28;20291;-86
2021/04/09 05:26:17;;;;;;;3.80;3.50;;;;;;;1.97;100.00;97944.53;5012780;28;20614;-85
2021/04/09 05:28:45;;;;;;;8.83;3.20;;;;;;;2.09;100.00;97946.63;5012759;28;20199;-86
2021/04/09 05:31:12;;;;;;;6.40;3.13;;;;;;;2.11;100.00;97942.22;5012201;28;20749;-85
2021/04/09 05:33:38;;;;;;;3.57;2.77;;;;;;;2.33;100.00;97934.34;5012624;28;20203;-86
2021/04/09 05:36:06;;;;;;;3.30;2.70;;;;;;;2.34;100.00;97943.81;5012416;28;20314;-86
2021/04/09 05:38:33;;;;;;;4.53;3.40;;;;;;;2.50;100.00;97946.59;5012271;28;20649;-85
2021/04/09 05:41:00;;;;;;;2.63;2.43;;;;;;;2.68;100.00;97947.53;5012529;28;20744;-85
2021/04/09 05:43:27;;;;;;;10.97;5.53;;;;;;;2.72;100.00;97949.91;5012141;28;20238;-86
2021/04/09 05:45:55;;;;;;;28.73;18.53;;;;;;;2.74;100.00;97945.50;5012840;28;20202;-87
2021/04/09 05:48:21;;;;;;;7.17;6.47;;;;;;;2.72;100.00;97939.53;5012612;28;20298;-86
2021/04/09 05:50:48;;;;;;;5.17;3.80;;;;;;;2.82;100.00;97934.75;5012362;28;20286;-87
2021/04/09 05:53:15;;;;;;;3.50;3.20;;;;;;;2.89;100.00;97940.53;5012335;28;20290;-87
2021/04/09 05:55:42;;;;;;;3.80;3.40;;;;;;;2.95;100.00;97932.47;5015123;28;20241;-87
2021/04/09 05:58:09;;;;;;;5.70;2.70;;;;;;;3.07;100.00;97942.25;5016216;28;20199;-87
2021/04/09 06:00:36;;;;;;;3.90;3.00;;;;;;;3.16;100.00;97939.25;5016287;28;20799;-88
2021/04/09 06:03:04;;;;;;;4.90;3.93;;;;;;;3.17;100.00;97927.94;5016123;28;20684;-88
2021/04/09 06:05:31;;;;;;;3.83;2.90;;;;;;;3.20;100.00;97935.59;5016488;28;20553;-88
2021/04/09 06:07:58;;;;;;;6.87;2.90;;;;;;;3.13;100.00;97934.19;5016233;28;20298;-87
2021/04/09 06:10:25;;;;;;;2.93;2.17;;;;;;;3.36;100.00;97938.31;5016241;28;20196;-88
2021/04/09 06:12:52;;;;;;;3.00;2.80;;;;;;;3.38;100.00;97931.28;5016551;28;20233;-88
2021/04/09 06:15:19;;;;;;;2.93;2.20;;;;;;;3.38;100.00;97920.88;5016077;28;20223;-88
2021/04/09 06:17:46;;;;;;;2.77;2.30;;;;;;;3.37;100.00;97921.81;5015878;28;20203;-88
2021/04/09 06:20:15;;;;;;;9.13;6.17;;;;;;;3.62;100.00;97920.59;5016149;28;20211;-88
2021/04/09 06:22:42;;;;;;;3.23;2.93;;;;;;;3.73;100.00;97920.91;5015659;28;20253;-88
2021/04/09 06:25:10;;;;;;;3.10;2.50;;;;;;;3.84;100.00;97910.81;5016025;28;20192;-88
2021/04/09 06:27:37;;;;;;;3.10;2.33;;;;;;;4.06;100.00;97910.59;5015948;28;20584;-88
2021/04/09 06:30:05;;;;;;;4.70;1.80;;;;;;;4.11;100.00;97905.97;5015746;28;20241;-88
2021/04/09 06:32:33;;;;;;;3.10;2.60;;;;;;;4.28;100.00;97905.13;5015543;28;20207;-88
2021/04/09 06:34:59;;;;;;;1.97;1.80;;;;;;;4.35;100.00;97890.88;5015828;28;20314;-88
2021/04/09 06:37:27;;;;;;;2.60;2.40;;;;;;;4.25;100.00;97874.03;5013811;28;20286;-88
2021/04/09 06:39:54;;;;;;;2.83;2.23;;;;;;;4.37;100.00;97881.22;5015438;28;20294;-88
2021/04/09 06:42:21;;;;;;;2.40;2.20;;;;;;;4.47;100.00;97892.84;5015690;28;20242;-88
2021/04/09 06:44:49;;;;;;;3.90;2.47;;;;;;;4.65;100.00;97888.41;5015765;28;20235;-88
2021/04/09 06:47:17;;;;;;;7.13;3.97;;;;;;;4.82;100.00;97879.69;5015474;28;20210;-88
2021/04/09 06:49:44;;;;;;;15.57;7.67;;;;;;;4.92;100.00;97874.81;5015906;28;20196;-88
2021/04/09 06:52:13;;;;;;;9.93;5.37;;;;;;;4.98;100.00;97857.06;5015669;28;20295;-89
2021/04/09 06:54:41;;;;;;;5.17;3.33;;;;;;;5.01;100.00;97854.28;5015276;28;20731;-88
2021/04/09 06:57:10;;;;;;;2.73;2.40;;;;;;;5.09;100.00;97830.44;5015619;28;20196;-88
2021/04/09 06:59:41;;;;;;;2.33;2.10;;;;;;;5.16;100.00;97818.72;5015727;28;20553;-88
2021/04/09 07:02:13;;;;;;;4.07;2.33;;;;;;;5.41;100.00;97830.34;5015359;28;20187;-89
2021/04/09 07:04:40;;;;;;;3.30;2.70;;;;;;;5.51;100.00;97821.06;5015324;28;20191;-88
2021/04/09 07:07:11;;;;;;;5.07;2.60;;;;;;;5.56;100.00;97810.38;5013989;28;20199;-89
2021/04/09 07:09:38;;;;;;;6.47;5.10;;;;;;;5.82;100.00;97809.69;5015422;28;20214;-89
2021/04/09 07:12:07;;;;;;;6.77;5.00;;;;;;;5.97;100.00;97807.94;5015021;28;20204;-88
2021/04/09 07:14:52;;;;;;;4.57;2.93;;;;;;;5.90;100.00;97785.72;5014968;28;20223;-88
2021/04/09 07:17:25;;;;;;;4.13;3.23;;;;;;;6.03;100.00;97791.09;5015301;28;20270;-89
2021/04/09 07:19:51;;;;;;;4.00;2.60;;;;;;;6.73;100.00;97801.53;5015398;28;20188;-89
2021/04/09 07:22:29;;;;;;;2.20;2.00;;;;;;;6.51;100.00;97774.16;5015083;28;20637;-89
2021/04/09 07:25:11;;;;;;;3.10;1.77;;;;;;;6.34;100.00;97759.53;5014758;28;20191;-89
2021/04/09 07:27:41;;;;;;;2.60;2.40;;;;;;;6.54;100.00;97779.16;5014876;28;20194;-89
2021/04/09 07:30:10;;;;;;;2.30;2.10;;;;;;;6.84;100.00;97773.78;5014668;28;20271;-88
2021/04/09 07:32:37;;;;;;;3.10;2.80;;;;;;;7.12;100.00;97775.44;5014883;28;20238;-88
2021/04/09 07:35:13;;;;;;;2.37;1.90;;;;;;;7.13;100.00;97748.38;5014868;28;20270;-89
2021/04/09 07:37:51;;;;;;;2.07;1.87;;;;;;;7.42;100.00;97744.75;5014568;28;20242;-88
2021/04/09 07:40:23;;;;;;;2.40;2.20;;;;;;;7.65;100.00;97758.88;5014637;28;20238;-89
2021/04/09 07:42:51;;;;;;;2.73;2.03;;;;;;;7.02;100.00;97716.00;5014275;28;20226;-89
2021/04/09 07:45:20;;;;;;;3.23;2.10;;;;;;;7.30;100.00;97731.53;5014550;28;20692;-88
2021/04/09 07:47:58;;;;;;;3.97;2.33;;;;;;;7.70;100.00;97731.47;5014705;28;20203;-89
2021/04/09 07:50:39;;;;;;;2.63;2.30;;;;;;;8.46;100.00;97721.88;5014296;28;20281;-89
2021/04/09 07:53:07;;;;;;;5.47;2.30;;;;;;;9.01;100.00;97705.56;5014375;28;20179;-89
2021/04/09 07:55:35;;;;;;;4.13;2.07;;;;;;;9.24;100.00;97674.16;5014538;28;20247;-89
2021/04/09 07:58:17;;;;;;;2.17;1.97;;;;;;;9.07;100.00;97666.72;5014476;28;20270;-89
2021/04/09 08:00:44;;;;;;;3.00;2.80;;;;;;;8.90;100.00;97644.38;5014304;28;20302;-89
2021/04/09 08:03:11;;;;;;;4.17;2.80;;;;;;;8.79;100.00;97625.03;5014120;28;20191;-89
2021/04/09 08:05:38;;;;;;;3.27;2.83;;;;;;;9.37;100.00;97647.81;5014120;28;20218;-89
2021/04/09 08:08:18;;;;;;;4.17;3.13;;;;;;;9.01;100.00;97595.44;5013911;28;20285;-88
2021/04/09 08:10:44;;;;;;;3.90;2.13;;;;;;;9.19;100.00;97564.34;5014057;28;20294;-89
2021/04/09 08:13:19;;;;;;;3.77;2.47;;;;;;;9.92;100.00;97530.63;5014167;28;20275;-89
2021/04/09 08:15:46;;;;;;;16.33;10.60;;;;;;;9.79;100.00;97424.91;5013990;28;20210;-89
2021/04/09 08:18:13;;;;;;;15.83;11.03;;;;;;;9.53;100.00;97385.88;5013811;28;20641;-89
2021/04/09 08:20:41;;;;;;;8.27;6.63;;;;;;;9.88;100.00;97267.44;5014004;28;20282;-89
2021/04/09 08:23:10;;;;;;;12.17;10.77;;;;;;;10.13;100.00;97300.34;5014209;28;20199;-89
2021/04/09 08:25:37;;;;;;;4.00;3.53;;;;;;;10.05;100.00;97259.94;5013985;28;20203;-89
2021/04/09 08:28:06;;;;;;;4.00;2.73;;;;;;;10.06;100.00;97195.94;5013685;28;20199;-89
2021/04/09 08:30:36;;;;;;;3.00;2.27;;;;;;;10.00;100.00;97216.50;5013348;28;20746;-89
2021/04/09 08:33:04;;;;;;;4.17;2.20;;;;;;;10.53;100.00;97139.25;5014028;28;20254;-90
2021/04/09 08:35:31;;;;;;;3.10;2.70;;;;;;;10.86;100.00;97118.75;5013885;28;20277;-89
2021/04/09 08:37:59;;;;;;;5.20;2.50;;;;;;;10.58;100.00;97104.66;5013514;28;20235;-90
2021/04/09 08:40:26;;;;;;;5.20;4.07;;;;;;;10.76;100.00;97100.34;5013743;28;20226;-90
2021/04/09 08:42:53;;;;;;;3.20;2.50;;;;;;;10.27;100.00;96981.28;5013439;28;20191;-90
2021/04/09 08:45:20;;;;;;;2.97;2.30;;;;;;;9.28;100.00;97025.84;5013581;28;20257;-90
2021/04/09 08:47:55;;;;;;;3.63;3.33;;;;;;;10.18;100.00;97014.44;5013621;28;20282;-90
2021/04/09 08:50:22;;;;;;;3.50;3.20;;;;;;;10.75;100.00;97034.78;5013555;28;20198;-90
2021/04/09 08:52:49;;;;;;;3.57;3.27;;;;;;;10.92;100.00;97032.25;5013249;28;20196;-90
2021/04/09 08:55:17;;;;;;;2.07;1.97;;;;;;;11.49;100.00;97037.44;5013522;28;20219;-91
2021/04/09 08:57:46;;;;;;;2.70;2.13;;;;;;;12.07;100.00;97017.88;5013504;28;20206;-91
2021/04/09 09:00:18;;;;;;;2.73;2.50;;;;;;;12.22;100.00;97018.19;5013375;28;20211;-91
2021/04/09 09:02:49;;;;;;;2.50;2.30;;;;;;;11.43;100.00;96993.28;5013149;28;20195;-91
2021/04/09 09:05:18;;;;;;;2.03;1.83;;;;;;;10.44;100.00;96982.38;5013177;28;20219;-91
2021/04/09 09:07:55;;;;;;;2.93;2.40;;;;;;;11.12;100.00;96955.91;5013091;28;20223;-91
2021/04/09 09:10:48;;;;;;;2.43;2.20;;;;;;;10.66;100.00;96950.50;5013569;28;20749;-91
2021/04/09 09:13:26;;;;;;;2.40;1.77;;;;;;;10.85;100.00;96920.69;5008717;28;20757;-90
2021/04/09 09:16:11;;;;;;;2.53;2.03;;;;;;;11.74;100.00;96867.41;5013383;28;20624;-92
2021/04/09 09:18:52;;;;;;;2.37;2.03;;;;;;;12.17;100.00;96810.47;5013119;28;20718;-92
2021/04/09 09:21:34;;;;;;;5.80;5.20;;;;;;;11.43;100.00;96807.25;5013195;28;20270;-91
2021/04/09 09:24:02;;;;;;;3.00;1.80;;;;;;;11.34;100.00;96808.13;5012977;28;20286;-92
2021/04/09 09:26:34;;;;;;;2.70;2.50;;;;;;;11.66;100.00;96815.47;5013320;28;20283;-91
2021/04/09 09:29:13;;;;;;;1.97;1.87;;;;;;;11.47;100.00;96810.41;5012761;28;20746;-91
2021/04/09 09:31:41;;;;;;;2.13;1.93;;;;;;;11.82;100.00;96817.44;5017288;28;20246;-91
2021/04/09 09:34:35;;;;;;;2.70;2.20;;;;;;;11.65;100.00;96832.28;5017242;28;20188;-91
2021/04/09 09:37:06;;;;;;;3.73;2.20;;;;;;;10.84;100.00;96827.00;5017097;28;20200;-90
2021/04/09 09:39:35;;;;;;;2.13;2.03;;;;;;;10.27;100.00;96818.38;5016800;28;20322;-90
2021/04/09 09:42:02;;;;;;;2.47;2.27;;;;;;;11.99;100.00;96830.78;5016744;28;20211;-91
2021/04/09 09:44:34;;;;;;;1.83;1.73;;;;;;;10.23;100.00;96838.81;5016896;28;20290;-90
2021/04/09 09:47:03;;;;;;;2.63;2.43;;;;;;;9.85;100.00;96792.47;5016968;28;20571;-90
2021/04/09 09:49:34;;;;;;;4.23;2.73;;;;;;;9.78;100.00;96812.38;5016657;28;20700;-90
2021/04/09 09:52:03;;;;;;;2.27;1.73;;;;;;;10.34;100.00;96844.91;5016518;28;20195;-90
2021/04/09 09:54:32;;;;;;;3.10;2.50;;;;;;;10.73;100.00;96844.75;5016968;28;20280;-90
2021/04/09 09:57:00;;;;;;;3.30;2.60;;;;;;;11.81;100.00;96828.97;5016479;28;20206;-91
2021/04/09 09:59:28;;;;;;;2.13;2.00;;;;;;;11.91;100.00;96894.72;5016832;28;20195;-90
2021/04/09 10:01:57;;;;;;;2.10;1.90;;;;;;;12.19;100.00;96976.31;5016336;28;20211;-90
2021/04/09 10:04:25;;;;;;;5.60;2.00;;;;;;;13.01;100.00;96898.59;5016494;28;20286;-89
2021/04/09 10:06:53;;;;;;;2.47;2.10;;;;;;;13.34;100.00;96935.72;5016273;28;20203;-89
2021/04/09 10:09:26;;;;;;;2.10;1.90;;;;;;;12.24;100.00;97016.25;5016174;28;20749;-89
2021/04/09 10:11:53;;;;;;;2.70;2.50;;;;;;;11.69;100.00;97030.28;5016109;28;20288;-89
2021/04/09 10:14:20;;;;;;;1.63;1.53;;;;;;;13.03;100.00;97055.78;5016282;28;20238;-89
2021/04/09 10:16:47;;;;;;;1.73;1.63;;;;;;;12.82;100.00;97079.88;5015926;28;20270;-89
2021/04/09 10:19:14;;;;;;;4.23;2.00;;;;;;;12.43;100.00;97075.88;5016178;28;20315;-89
2021/04/09 10:21:43;;;;;;;2.63;1.70;;;;;;;12.70;100.00;97036.25;5016020;28;20198;-89
2021/04/09 10:24:12;;;;;;;1.77;1.67;;;;;;;12.76;100.00;97111.31;5016602;28;20579;-89
2021/04/09 10:26:41;;;;;;;4.63;1.73;;;;;;;11.26;100.00;97204.59;5016065;28;20241;-89
2021/04/09 10:29:22;;;;;;;1.20;1.20;;;;;;;11.33;100.00;97138.09;5016123;28;20280;-88
2021/04/09 10:31:50;;;;;;;9.03;3.67;;;;;;;10.68;100.00;97024.81;5015603;28;20683;-89
2021/04/09 10:34:20;;;;;;;1.97;1.80;;;;;;;10.44;100.00;97027.03;5015971;28;20258;-88
2021/04/09 10:36:47;;;;;;;2.20;1.73;;;;;;;10.91;100.00;97022.69;5015964;28;20606;-89
2021/04/09 10:39:16;;;;;;;3.63;1.80;;;;;;;10.69;100.00;97013.31;5015625;28;20199;-88
2021/04/09 10:41:46;;;;;;;4.43;2.07;;;;;;;10.74;100.00;97027.81;5015577;28;20208;-88
2021/04/09 10:44:17;;;;;;;2.17;1.67;;;;;;;10.33;100.00;97067.44;5015788;28;20192;-89
2021/04/09 10:46:46;;;;;;;1.97;1.87;;;;;;;10.62;100.00;97096.34;5015839;28;20327;-88
2021/04/09 10:49:15;;;;;;;1.27;1.27;;;;;;;11.52;100.00;97068.75;5015909;28;20210;-88
2021/04/09 10:51:45;;;;;;;3.37;2.43;;;;;;;11.11;100.00;97302.31;5015443;28;20209;-88
2021/04/09 10:54:14;;;;;;;1.70;1.60;;;;;;;11.12;100.00;97185.63;5015651;28;20202;-88
2021/04/09 10:56:42;;;;;;;2.33;2.13;;;;;;;11.31;100.00;97137.38;5015203;28;20227;-89
2021/04/09 10:59:11;;;;;;;1.90;1.70;;;;;;;10.92;100.00;97181.31;5015227;28;20199;-89
2021/04/09 11:01:40;;;;;;;4.53;2.30;;;;;;;10.76;100.00;97194.19;5015284;28;20677;-89
2021/04/09 11:04:07;;;;;;;2.70;2.20;;;;;;;11.49;100.00;97153.28;5015359;28;20349;-88
2021/04/09 11:06:35;;;;;;;3.83;1.83;;;;;;;11.98;100.00;97274.31;5015498;28;20243;-89
2021/04/09 11:09:05;;;;;;;1.73;1.63;;;;;;;11.76;100.00;97283.34;5015010;28;20256;-89
2021/04/09 11:11:35;;;;;;;5.47;2.17;;;;;;;11.77;100.00;97272.66;5015637;28;20274;-88
2021/04/09 11:14:07;;;;;;;1.80;1.70;;;;;;;11.84;100.00;97284.31;5015316;28;20242;-89
2021/04/09 11:16:55;;;;;;;1.80;1.40;;;;;;;12.53;100.00;97309.50;5014777;28;20223;-89
2021/04/09 11:19:25;;;;;;;2.17;1.63;;;;;;;11.72;100.00;97303.06;5015427;28;20207;-89
2021/04/09 11:21:53;;;;;;;1.40;1.30;;;;;;;11.25;100.00;97360.81;5014912;28;20760;-89
2021/04/09 11:24:25;;;;;;;1.87;1.57;;;;;;;11.23;100.00;97308.31;5014935;28;20292;-89
2021/04/09 11:26:53;;;;;;;2.83;1.70;;;;;;;12.10;100.00;97363.63;5014828;28;20821;-89
2021/04/09 11:29:28;;;;;;;2.40;1.40;;;;;;;12.14;100.00;97370.25;5014793;28;20291;-89
2021/04/09 11:32:10;;;;;;;1.73;1.63;;;;;;;12.34;100.00;97423.78;5015071;28;20199;-89
2021/04/09 11:34:37;;;;;;;2.63;2.33;;;;;;;12.18;100.00;97341.00;5015215;28;20206;-88
2021/04/09 11:37:04;;;;;;;2.93;1.90;;;;;;;12.31;100.00;97410.06;5014646;28;20695;-89
2021/04/09 11:39:32;;;;;;;2.40;1.90;;;;;;;12.70;100.00;97387.03;5015096;28;20200;-89
2021/04/09 11:42:01;;;;;;;2.57;1.80;;;;;;;12.97;100.00;97394.16;5014853;28;20587;-89